createdAt,value
2023-03-15T00:01:15.051Z,99.64
2023-03-15T00:03:43.199Z,99.73
2023-03-15T00:06:10.794Z,99.96
2023-03-15T00:08:38.374Z,100.00
2023-03-15T00:11:05.635Z,100.00
2023-03-15T00:13:32.816Z,98.86
2023-03-15T00:16:03.420Z,98.82
2023-03-15T00:18:30.781Z,100.00
2023-03-15T00:20:58.544Z,99.59
2023-03-15T00:23:25.568Z,99.89
2023-03-15T00:25:53.540Z,98.77
2023-03-15T00:28:20.490Z,98.56
2023-03-15T00:30:47.271Z,99.05
2023-03-15T00:33:15.133Z,98.07
2023-03-15T00:35:45.483Z,99.08
2023-03-15T00:38:14.268Z,99.64
2023-03-15T00:40:41.229Z,97.78
2023-03-15T00:43:07.969Z,98.24
2023-03-15T00:45:34.729Z,98.77
2023-03-15T00:48:01.479Z,98.32
2023-03-15T00:50:29.246Z,98.48
2023-03-15T00:52:56.004Z,97.64
2023-03-15T00:55:23.050Z,96.85
2023-03-15T00:57:49.808Z,96.93
2023-03-15T01:00:25.109Z,96.88
2023-03-15T01:02:53.625Z,96.85
2023-03-15T01:05:21.656Z,95.55
2023-03-15T01:07:49.185Z,95.63
2023-03-15T01:10:16.891Z,96.02
2023-03-15T01:12:44.176Z,95.40
2023-03-15T01:15:15.205Z,95.20
2023-03-15T01:17:42.707Z,94.61
2023-03-15T01:20:13.356Z,94.72
2023-03-15T01:22:40.538Z,94.46
2023-03-15T01:25:09.388Z,93.99
2023-03-15T01:27:36.386Z,94.29
2023-03-15T01:30:03.974Z,94.81
2023-03-15T01:32:30.776Z,94.78
2023-03-15T01:34:57.904Z,94.70
2023-03-15T01:37:24.847Z,94.74
2023-03-15T01:39:51.920Z,94.74
2023-03-15T01:42:18.795Z,94.84
2023-03-15T01:44:52.972Z,94.64
2023-03-15T01:47:20.286Z,93.93
2023-03-15T01:49:57.972Z,93.88
2023-03-15T01:52:36.358Z,94.07
2023-03-15T01:55:14.316Z,93.69
2023-03-15T01:57:50.538Z,93.85
2023-03-15T02:00:20.020Z,92.78
2023-03-15T02:02:53.866Z,92.93
2023-03-15T02:05:25.796Z,92.19
2023-03-15T02:07:54.780Z,92.20
2023-03-15T02:10:38.339Z,92.05
2023-03-15T02:13:05.745Z,92.00
2023-03-15T02:15:32.658Z,91.47
2023-03-15T02:17:59.546Z,91.31
2023-03-15T02:21:00.440Z,91.64
2023-03-15T02:23:29.139Z,91.29
2023-03-15T02:26:21.871Z,91.28
2023-03-15T02:28:49.725Z,89.06
2023-03-15T02:31:16.632Z,89.31
2023-03-15T02:33:50.462Z,91.23
2023-03-15T02:36:27.937Z,92.05
2023-03-15T02:38:56.919Z,93.19
2023-03-15T02:41:42.563Z,93.33
2023-03-15T02:44:19.016Z,92.74
2023-03-15T02:46:50.642Z,91.61
2023-03-15T02:49:17.755Z,91.87
2023-03-15T02:51:44.664Z,91.66
2023-03-15T02:54:11.453Z,91.37
2023-03-15T02:56:38.207Z,91.24
2023-03-15T02:59:05.159Z,91.34
2023-03-15T03:01:31.978Z,91.40
2023-03-15T03:03:58.843Z,92.27
2023-03-15T03:06:25.590Z,93.01
2023-03-15T03:08:52.302Z,93.37
2023-03-15T03:11:19.051Z,92.89
2023-03-15T03:13:46.005Z,92.90
2023-03-15T03:16:13.285Z,94.00
2023-03-15T03:18:42.346Z,94.86
2023-03-15T03:21:09.251Z,95.23
2023-03-15T03:23:37.204Z,94.03
2023-03-15T03:26:16.817Z,93.65
2023-03-15T03:28:47.186Z,93.38
2023-03-15T03:31:26.427Z,94.80
2023-03-15T03:33:53.555Z,95.02
2023-03-15T03:36:20.287Z,95.47
2023-03-15T03:38:47.468Z,94.58
2023-03-15T03:41:15.348Z,94.91
2023-03-15T03:43:42.616Z,94.69
2023-03-15T03:46:10.013Z,94.76
2023-03-15T03:48:36.865Z,94.99
2023-03-15T03:51:03.736Z,96.20
2023-03-15T03:53:30.619Z,95.36
2023-03-15T03:55:57.438Z,96.09
2023-03-15T03:58:24.197Z,96.37
2023-03-15T04:00:54.412Z,96.34
2023-03-15T04:03:27.361Z,96.36
2023-03-15T04:05:58.695Z,97.35
2023-03-15T04:08:27.155Z,97.34
2023-03-15T04:10:56.362Z,98.28
2023-03-15T04:13:24.621Z,97.64
2023-03-15T04:15:52.072Z,97.41
2023-03-15T04:18:19.678Z,97.05
2023-03-15T04:20:47.713Z,96.07
2023-03-15T04:23:15.793Z,95.64
2023-03-15T04:25:42.762Z,95.96
2023-03-15T04:28:13.308Z,96.88
2023-03-15T04:30:42.762Z,98.39
2023-03-15T04:33:11.055Z,99.05
2023-03-15T04:35:39.364Z,97.55
2023-03-15T04:38:06.758Z,97.27
2023-03-15T04:40:36.926Z,96.72
2023-03-15T04:43:05.784Z,97.96
2023-03-15T04:45:32.874Z,98.77
2023-03-15T04:48:00.357Z,98.06
2023-03-15T04:50:28.150Z,99.07
2023-03-15T04:52:55.284Z,98.10
2023-03-15T04:55:21.996Z,97.86
2023-03-15T04:57:48.784Z,98.62
2023-03-15T05:00:16.005Z,99.06
2023-03-15T05:02:43.220Z,99.78
2023-03-15T05:05:12.193Z,99.33
2023-03-15T05:07:39.531Z,99.77
2023-03-15T05:10:07.551Z,100.00
2023-03-15T05:12:34.363Z,100.00
2023-03-15T05:15:01.175Z,100.00
2023-03-15T05:17:28.071Z,100.00
2023-03-15T05:19:54.935Z,100.00
2023-03-15T05:22:25.687Z,100.00
2023-03-15T05:24:53.845Z,100.00
2023-03-15T05:27:21.017Z,99.99
2023-03-15T05:29:47.889Z,99.24
2023-03-15T05:32:14.671Z,98.71
2023-03-15T05:34:42.918Z,98.09
2023-03-15T05:37:10.424Z,98.96
2023-03-15T05:39:37.171Z,99.34
2023-03-15T05:42:04.149Z,99.31
2023-03-15T05:44:30.897Z,99.70
2023-03-15T05:46:57.619Z,99.80
2023-03-15T05:49:24.341Z,99.99
2023-03-15T05:51:51.076Z,100.00
2023-03-15T05:54:17.806Z,100.00
2023-03-15T05:56:44.576Z,100.00
2023-03-15T05:59:11.280Z,100.00
2023-03-15T06:01:38.028Z,100.00
2023-03-15T06:04:04.979Z,100.00
2023-03-15T06:06:33.679Z,100.00
2023-03-15T06:09:00.833Z,100.00
2023-03-15T06:11:27.619Z,100.00
2023-03-15T06:13:54.356Z,100.00
2023-03-15T06:16:21.187Z,100.00
2023-03-15T06:18:47.912Z,100.00
2023-03-15T06:21:14.676Z,100.00
2023-03-15T06:23:41.440Z,100.00
2023-03-15T06:26:08.464Z,100.00
2023-03-15T06:28:35.303Z,100.00
2023-03-15T06:31:15.398Z,100.00
2023-03-15T06:33:42.451Z,100.00
2023-03-15T06:36:09.953Z,100.00
2023-03-15T06:38:36.755Z,100.00
2023-03-15T06:41:05.287Z,100.00
2023-03-15T06:43:32.200Z,99.69
2023-03-15T06:46:00.185Z,100.00
2023-03-15T06:48:28.134Z,100.00
2023-03-15T06:50:54.999Z,99.74
2023-03-15T06:53:21.923Z,100.00
2023-03-15T06:55:50.734Z,100.00
2023-03-15T06:58:18.134Z,100.00
2023-03-15T07:00:44.959Z,100.00
2023-03-15T07:03:11.766Z,100.00
2023-03-15T07:05:39.129Z,100.00
2023-03-15T07:08:06.708Z,100.00
2023-03-15T07:10:33.822Z,100.00
2023-03-15T07:13:00.861Z,100.00
2023-03-15T07:15:28.552Z,100.00
2023-03-15T07:17:55.296Z,100.00
2023-03-15T07:20:22.056Z,100.00
2023-03-15T07:22:49.883Z,100.00
2023-03-15T07:25:24.162Z,100.00
2023-03-15T07:27:52.216Z,100.00
2023-03-15T07:30:20.800Z,100.00
2023-03-15T07:32:47.919Z,100.00
2023-03-15T07:35:15.170Z,100.00
2023-03-15T07:37:44.579Z,100.00
2023-03-15T07:40:13.434Z,100.00
2023-03-15T07:42:40.781Z,100.00
2023-03-15T07:45:09.347Z,100.00
2023-03-15T07:47:36.598Z,100.00
2023-03-15T07:50:06.483Z,100.00
2023-03-15T07:52:33.234Z,100.00
2023-03-15T07:55:00.069Z,99.39
2023-03-15T07:57:28.854Z,98.86
2023-03-15T07:59:56.264Z,98.86
2023-03-15T08:02:23.146Z,97.44
2023-03-15T08:04:51.470Z,96.89
2023-03-15T08:07:18.207Z,95.88
2023-03-15T08:09:45.074Z,92.76
2023-03-15T08:12:12.039Z,92.96
2023-03-15T08:14:38.777Z,94.23
2023-03-15T08:17:05.526Z,94.01
2023-03-15T08:19:32.990Z,93.00
2023-03-15T08:21:59.732Z,89.39
2023-03-15T08:24:27.178Z,88.33
2023-03-15T08:26:53.974Z,89.33
2023-03-15T08:29:20.792Z,86.02
2023-03-15T08:31:47.608Z,84.63
2023-03-15T08:34:14.373Z,86.52
2023-03-15T08:36:41.992Z,85.29
2023-03-15T08:39:08.963Z,83.80
2023-03-15T08:41:35.852Z,85.62
2023-03-15T08:44:02.919Z,87.19
2023-03-15T08:46:29.708Z,82.93
2023-03-15T08:48:57.215Z,82.82
2023-03-15T08:51:25.578Z,83.31
2023-03-15T08:53:53.769Z,82.46
2023-03-15T08:56:21.156Z,82.14
2023-03-15T08:58:48.467Z,81.36
2023-03-15T09:01:15.934Z,82.84
2023-03-15T09:03:42.780Z,80.65
2023-03-15T09:06:10.167Z,81.07
2023-03-15T09:08:37.176Z,79.61
2023-03-15T09:11:03.999Z,80.00
2023-03-15T09:13:31.162Z,78.84
2023-03-15T09:15:58.047Z,78.50
2023-03-15T09:18:25.285Z,78.69
2023-03-15T09:20:52.167Z,78.26
2023-03-15T09:23:18.981Z,78.06
2023-03-15T09:25:45.811Z,80.46
2023-03-15T09:28:12.925Z,78.47
2023-03-15T09:30:41.561Z,77.47
2023-03-15T09:33:08.812Z,80.26
2023-03-15T09:35:36.054Z,78.09
2023-03-15T09:38:04.077Z,76.13
2023-03-15T09:40:40.843Z,76.94
2023-03-15T09:43:07.552Z,78.23
2023-03-15T09:46:00.922Z,76.18
2023-03-15T09:48:49.018Z,75.22
2023-03-15T09:51:40.057Z,80.40
2023-03-15T09:54:23.981Z,73.43
2023-03-15T09:56:59.621Z,75.92
2023-03-15T09:59:33.385Z,66.45
2023-03-15T10:02:14.221Z,71.51
2023-03-15T10:04:44.931Z,68.39
2023-03-15T10:07:16.649Z,67.54
2023-03-15T10:09:44.436Z,65.91
2023-03-15T10:12:17.250Z,69.65
2023-03-15T10:15:25.785Z,71.02
2023-03-15T10:17:58.466Z,63.92
2023-03-15T10:20:37.429Z,63.25
2023-03-15T10:23:19.628Z,64.50
2023-03-15T10:25:49.557Z,64.00
2023-03-15T10:28:31.289Z,67.25
2023-03-15T10:31:02.382Z,63.46
2023-03-15T10:33:34.923Z,64.58
2023-03-15T10:36:11.897Z,63.67
2023-03-15T10:38:39.619Z,65.73
2023-03-15T10:41:07.303Z,61.81
2023-03-15T10:43:40.490Z,59.08
2023-03-15T10:46:14.439Z,61.35
2023-03-15T10:49:12.781Z,61.28
2023-03-15T10:51:47.838Z,62.80
2023-03-15T10:54:20.587Z,61.00
2023-03-15T10:57:02.625Z,61.91
2023-03-15T10:59:34.618Z,58.39
2023-03-15T11:02:27.636Z,54.76
2023-03-15T11:05:09.055Z,58.43
2023-03-15T11:07:36.434Z,58.86
2023-03-15T11:10:06.912Z,57.95
2023-03-15T11:12:35.040Z,57.49
2023-03-15T11:15:22.098Z,60.11
2023-03-15T11:17:50.294Z,61.52
2023-03-15T11:20:36.834Z,56.55
2023-03-15T11:23:33.792Z,56.31
2023-03-15T11:26:01.504Z,52.55
2023-03-15T11:28:32.167Z,53.47
2023-03-15T11:31:00.943Z,56.24
2023-03-15T11:33:38.995Z,53.79
2023-03-15T11:36:12.512Z,59.09
2023-03-15T11:38:44.669Z,54.67
2023-03-15T11:41:52.944Z,53.99
2023-03-15T11:44:33.922Z,48.40
2023-03-15T11:47:31.732Z,51.44
2023-03-15T11:49:59.305Z,49.14
2023-03-15T11:52:29.169Z,43.39
2023-03-15T11:55:02.176Z,49.02
2023-03-15T11:57:28.835Z,45.71
2023-03-15T12:00:21.839Z,46.67
2023-03-15T12:02:54.143Z,47.51
2023-03-15T12:05:51.071Z,47.39
2023-03-15T12:08:25.843Z,44.09
2023-03-15T12:10:53.532Z,47.22
2023-03-15T12:13:29.667Z,48.58
2023-03-15T12:15:57.355Z,47.55
2023-03-15T12:18:47.108Z,46.71
2023-03-15T12:21:40.034Z,45.77
2023-03-15T12:24:17.371Z,46.48
2023-03-15T12:26:51.331Z,46.10
2023-03-15T12:29:29.616Z,46.99
2023-03-15T12:32:09.918Z,47.74
2023-03-15T12:34:47.282Z,47.74
2023-03-15T12:37:42.989Z,45.46
2023-03-15T12:40:15.570Z,43.72
2023-03-15T12:42:42.224Z,45.44
2023-03-15T12:45:18.087Z,45.47
2023-03-15T12:47:50.356Z,46.52
2023-03-15T12:50:37.999Z,45.55
2023-03-15T12:53:30.863Z,45.04
2023-03-15T12:56:32.814Z,46.46
2023-03-15T12:59:10.656Z,46.61
2023-03-15T13:01:37.707Z,48.65
2023-03-15T13:04:04.533Z,44.60
2023-03-15T13:06:52.019Z,46.95
2023-03-15T13:09:50.001Z,45.07
2023-03-15T13:12:42.807Z,45.47
2023-03-15T13:15:17.659Z,41.34
2023-03-15T13:18:18.091Z,42.24
2023-03-15T13:21:18.857Z,41.63
2023-03-15T13:23:54.976Z,44.46
2023-03-15T13:26:35.536Z,39.63
2023-03-15T13:29:17.793Z,41.24
2023-03-15T13:31:46.625Z,42.86
2023-03-15T13:34:24.549Z,41.29
2023-03-15T13:36:57.967Z,43.18
2023-03-15T13:39:33.852Z,42.05
2023-03-15T13:42:19.666Z,39.96
2023-03-15T13:44:46.577Z,39.07
2023-03-15T13:47:23.527Z,40.42
2023-03-15T13:49:53.170Z,37.14
2023-03-15T13:52:20.619Z,38.72
2023-03-15T13:54:47.486Z,38.19
2023-03-15T13:57:22.231Z,36.89
2023-03-15T14:00:30.718Z,37.51
2023-03-15T14:03:07.956Z,38.59
2023-03-15T14:05:45.048Z,38.89
2023-03-15T14:08:33.014Z,39.36
2023-03-15T14:11:11.413Z,37.85
2023-03-15T14:13:54.219Z,39.82
2023-03-15T14:17:01.114Z,39.54
2023-03-15T14:19:34.628Z,39.10
2023-03-15T14:22:14.019Z,40.57
2023-03-15T14:24:43.866Z,40.83
2023-03-15T14:27:32.455Z,40.56
2023-03-15T14:30:01.959Z,41.18
2023-03-15T14:32:30.981Z,40.64
2023-03-15T14:35:20.148Z,40.05
2023-03-15T14:37:47.789Z,41.27
2023-03-15T14:40:41.110Z,42.69
2023-03-15T14:43:09.956Z,44.80
2023-03-15T14:45:40.669Z,41.26
2023-03-15T14:48:14.829Z,43.68
2023-03-15T14:50:44.336Z,41.90
2023-03-15T14:53:17.266Z,42.12
2023-03-15T14:55:44.080Z,43.21
2023-03-15T14:58:21.891Z,44.28
2023-03-15T15:00:55.800Z,41.13
2023-03-15T15:03:29.937Z,42.26
2023-03-15T15:05:56.951Z,42.01
2023-03-15T15:08:23.753Z,39.67
2023-03-15T15:10:54.022Z,39.90
2023-03-15T15:13:27.366Z,39.82
2023-03-15T15:15:56.889Z,38.40
2023-03-15T15:18:31.202Z,37.94
2023-03-15T15:21:01.544Z,36.87
2023-03-15T15:23:31.657Z,41.74
2023-03-15T15:26:02.334Z,39.96
2023-03-15T15:28:36.971Z,40.04
2023-03-15T15:31:07.318Z,39.37
2023-03-15T15:33:34.633Z,40.73
2023-03-15T15:36:01.688Z,38.64
2023-03-15T15:38:34.971Z,39.06
2023-03-15T15:41:01.732Z,39.69
2023-03-15T15:43:28.920Z,39.57
2023-03-15T15:45:55.733Z,39.31
2023-03-15T15:48:22.813Z,39.46
2023-03-15T15:50:49.528Z,39.63
2023-03-15T15:53:18.147Z,40.57
2023-03-15T15:55:46.428Z,41.80
2023-03-15T15:58:14.502Z,41.52
2023-03-15T16:00:41.360Z,42.25
2023-03-15T16:03:17.232Z,42.36
2023-03-15T16:05:44.797Z,42.08
2023-03-15T16:08:25.734Z,42.61
2023-03-15T16:10:52.507Z,43.15
2023-03-15T16:13:19.300Z,44.33
2023-03-15T16:15:46.129Z,45.23
2023-03-15T16:18:13.119Z,43.61
2023-03-15T16:20:40.967Z,44.29
2023-03-15T16:23:21.672Z,47.88
2023-03-15T16:25:53.319Z,46.04
2023-03-15T16:28:20.106Z,46.04
2023-03-15T16:30:47.278Z,47.63
2023-03-15T16:33:20.281Z,47.26
2023-03-15T16:35:53.472Z,47.29
2023-03-15T16:38:24.798Z,47.94
2023-03-15T16:40:53.324Z,48.29
2023-03-15T16:43:20.645Z,47.84
2023-03-15T16:45:47.708Z,49.35
2023-03-15T16:48:14.882Z,48.90
2023-03-15T16:50:43.497Z,50.09
2023-03-15T16:53:13.282Z,50.60
2023-03-15T16:55:40.607Z,51.31
2023-03-15T16:58:25.296Z,51.27
2023-03-15T17:00:52.044Z,51.32
2023-03-15T17:03:19.310Z,52.76
2023-03-15T17:05:48.052Z,52.07
2023-03-15T17:08:20.005Z,52.77
2023-03-15T17:10:47.467Z,52.99
2023-03-15T17:13:17.782Z,54.45
2023-03-15T17:15:44.533Z,54.66
2023-03-15T17:18:18.673Z,54.71
2023-03-15T17:20:48.050Z,55.77
2023-03-15T17:23:16.116Z,56.27
2023-03-15T17:25:42.859Z,56.34
2023-03-15T17:28:09.768Z,57.22
2023-03-15T17:30:37.717Z,57.34
2023-03-15T17:33:05.705Z,57.51
2023-03-15T17:35:36.976Z,57.83
2023-03-15T17:38:07.341Z,58.02
2023-03-15T17:40:36.495Z,58.07
2023-03-15T17:43:04.457Z,58.70
2023-03-15T17:45:33.840Z,59.39
2023-03-15T17:48:02.149Z,59.56
2023-03-15T17:50:32.744Z,60.93
2023-03-15T17:53:06.986Z,60.97
2023-03-15T17:55:35.096Z,60.90
2023-03-15T17:58:13.258Z,61.96
2023-03-15T18:00:40.328Z,62.63
2023-03-15T18:03:07.089Z,63.42
2023-03-15T18:05:33.830Z,64.30
2023-03-15T18:08:00.826Z,64.05
2023-03-15T18:10:41.708Z,63.89
2023-03-15T18:13:14.490Z,63.75
2023-03-15T18:15:41.536Z,64.00
2023-03-15T18:18:08.332Z,64.67
2023-03-15T18:20:35.330Z,64.42
2023-03-15T18:23:03.233Z,64.70
2023-03-15T18:25:33.292Z,65.72
2023-03-15T18:28:00.551Z,65.30
2023-03-15T18:30:31.264Z,65.22
2023-03-15T18:32:58.307Z,66.33
2023-03-15T18:35:34.432Z,66.95
2023-03-15T18:38:01.510Z,66.94
2023-03-15T18:40:31.111Z,66.53
2023-03-15T18:42:58.849Z,66.17
2023-03-15T18:45:32.186Z,67.33
2023-03-15T18:48:00.067Z,67.90
2023-03-15T18:50:28.577Z,68.73
2023-03-15T18:52:55.675Z,67.66
2023-03-15T18:55:22.643Z,68.31
2023-03-15T18:57:53.761Z,67.95
2023-03-15T19:00:27.434Z,68.77
2023-03-15T19:03:01.661Z,69.34
2023-03-15T19:05:30.282Z,69.02
2023-03-15T19:07:57.373Z,69.62
2023-03-15T19:10:25.814Z,69.76
2023-03-15T19:12:53.575Z,69.73
2023-03-15T19:15:23.431Z,69.73
2023-03-15T19:17:54.617Z,69.71
2023-03-15T19:20:23.095Z,69.53
2023-03-15T19:22:51.930Z,69.32
2023-03-15T19:25:19.331Z,69.72
2023-03-15T19:27:46.498Z,69.78
2023-03-15T19:30:20.897Z,70.32
2023-03-15T19:32:48.618Z,72.30
2023-03-15T19:35:17.723Z,73.10
2023-03-15T19:37:44.700Z,74.85
2023-03-15T19:40:13.988Z,74.92
2023-03-15T19:42:40.793Z,74.51
2023-03-15T19:45:09.387Z,74.66
2023-03-15T19:47:36.224Z,74.65
2023-03-15T19:50:03.338Z,73.70
2023-03-15T19:52:30.217Z,74.56
2023-03-15T19:54:56.956Z,75.30
2023-03-15T19:57:23.685Z,74.70
2023-03-15T19:59:50.530Z,74.77
2023-03-15T20:02:17.313Z,74.79
2023-03-15T20:04:44.427Z,74.73
2023-03-15T20:07:12.440Z,75.17
2023-03-15T20:09:40.239Z,74.53
2023-03-15T20:12:10.195Z,74.75
2023-03-15T20:14:37.205Z,75.65
2023-03-15T20:17:04.176Z,75.89
2023-03-15T20:19:31.244Z,76.18
2023-03-15T20:21:58.710Z,77.80
2023-03-15T20:24:25.520Z,78.37
2023-03-15T20:26:53.030Z,80.05
2023-03-15T20:29:22.486Z,79.38
2023-03-15T20:31:50.165Z,79.43
2023-03-15T20:34:18.401Z,79.16
2023-03-15T20:36:45.169Z,78.96
2023-03-15T20:39:12.184Z,80.20
2023-03-15T20:41:39.253Z,80.73
2023-03-15T20:44:06.570Z,80.57
2023-03-15T20:46:34.142Z,80.17
2023-03-15T20:49:01.008Z,79.68
2023-03-15T20:51:29.059Z,79.22
2023-03-15T20:53:55.937Z,79.45
2023-03-15T20:56:22.742Z,79.74
2023-03-15T20:58:49.467Z,79.61
2023-03-15T21:01:17.229Z,79.54
2023-03-15T21:03:45.647Z,79.34
2023-03-15T21:06:13.688Z,80.36
2023-03-15T21:08:41.775Z,80.50
2023-03-15T21:11:09.075Z,80.61
2023-03-15T21:13:36.796Z,81.18
2023-03-15T21:16:05.262Z,81.55
2023-03-15T21:18:33.824Z,81.27
2023-03-15T21:21:02.689Z,81.27
2023-03-15T21:23:34.031Z,81.22
2023-03-15T21:26:07.437Z,81.29
2023-03-15T21:28:34.670Z,81.31
2023-03-15T21:31:01.627Z,81.58
2023-03-15T21:33:30.329Z,82.08
2023-03-15T21:35:59.189Z,81.92
2023-03-15T21:38:34.260Z,82.15
2023-03-15T21:41:01.381Z,82.13
2023-03-15T21:43:33.189Z,82.49
2023-03-15T21:46:02.766Z,82.32
2023-03-15T21:48:30.580Z,82.99
2023-03-15T21:50:57.383Z,83.07
2023-03-15T21:53:24.287Z,83.28
2023-03-15T21:55:51.055Z,83.17
2023-03-15T21:58:17.845Z,84.66
2023-03-15T22:00:44.630Z,84.45
2023-03-15T22:03:14.153Z,84.55
2023-03-15T22:05:40.955Z,84.82
2023-03-15T22:08:07.735Z,84.56
2023-03-15T22:10:34.504Z,85.20
2023-03-15T22:13:01.223Z,85.64
2023-03-15T22:15:28.036Z,85.27
2023-03-15T22:17:54.940Z,85.77
2023-03-15T22:20:21.714Z,85.49
2023-03-15T22:22:49.301Z,85.06
2023-03-15T22:25:16.330Z,85.65
2023-03-15T22:27:43.457Z,85.61
2023-03-15T22:30:17.922Z,85.70
2023-03-15T22:32:44.947Z,85.93
2023-03-15T22:35:13.910Z,85.84
2023-03-15T22:37:40.784Z,86.44
2023-03-15T22:40:09.970Z,87.51
2023-03-15T22:42:36.780Z,88.01
2023-03-15T22:45:03.847Z,87.27
2023-03-15T22:47:30.597Z,87.00
2023-03-15T22:49:59.707Z,86.86
2023-03-15T22:52:27.601Z,87.59
2023-03-15T22:54:54.757Z,87.34
2023-03-15T22:57:22.329Z,88.33
2023-03-15T22:59:49.090Z,90.20
2023-03-15T23:02:15.896Z,90.31
2023-03-15T23:04:42.897Z,90.52
2023-03-15T23:07:10.106Z,90.02
2023-03-15T23:09:36.855Z,89.72
2023-03-15T23:12:04.225Z,89.66
2023-03-15T23:14:31.177Z,89.21
2023-03-15T23:16:58.054Z,89.21
2023-03-15T23:19:25.013Z,89.74
2023-03-15T23:21:51.769Z,90.12
2023-03-15T23:24:19.819Z,89.64
2023-03-15T23:26:46.619Z,90.02
2023-03-15T23:29:13.610Z,89.85
2023-03-15T23:31:42.765Z,89.91
2023-03-15T23:34:09.698Z,89.48
2023-03-15T23:36:36.516Z,89.56
2023-03-15T23:39:04.225Z,89.45
2023-03-15T23:41:31.292Z,89.36
2023-03-15T23:43:58.169Z,89.91
2023-03-15T23:46:25.478Z,89.22
2023-03-15T23:48:53.273Z,89.23
2023-03-15T23:51:22.343Z,89.79
2023-03-15T23:53:49.195Z,90.38
2023-03-15T23:56:15.953Z,90.05
2023-03-15T23:58:42.737Z,90.28
